Terminal Aerodrome Forecast
Issued by NWS

Home | Current Version | Previous Version | Text Only | Print | Product List | Glossary On
Versions: 1 2 3 4 5 6 7 8 9 10 11 12 13 14 15
000
FTUS46 KHNX 240557 CCA
TAFBFL
TAF COR
KBFL 240557Z 2406/2506 30010KT P6SM -TSRA SCT040 BKN050CB
     FM240800 VRB04KT P6SM SCT050 BKN060
     FM242000 30011G17KT P6SM SKC=

USA.gov is the U.S. government's official web portal to all federal, state and local government web resources and services.